Kvitbjoern — LM9158 — position and weather

sailwx.info

Track history (hours):
 
Tides and Currents Weather Stations Pressure Air Temp Water Temp Dewpoint Dewpoint Depression Visibility Wind Speed Wind Dir Waves Ship Positions

Kvitbjoern

Last reported at 2015-Mar-31 16:29 UTC. Time now 2015-Apr-01 03:07 UTC.
Position N 66°22' E 012°21'.

Length 10 m.

Type: Fishing. MMSI: 257454420.

Date/timePositionNaut miles runAvg speedWind from/ knotsBaromVisibWave heightAir tempDewpointWater temp
2015-Mar-31 16:29N 66°22' E 012°21'1 1.5
2015-Mar-31 15:33N 66°21' E 012°24'2 1.7
2015-Mar-31 14:25N 66°20' E 012°28'1 1.0
2015-Mar-31 13:31N 66°20' E 012°26'2 2.4
2015-Mar-31 12:33N 66°22' E 012°24'2 2.1
2015-Mar-31 11:33N 66°24' E 012°21'1 1.3
2015-Mar-31 10:32N 66°22' E 012°21'0 0.0
2015-Mar-31 09:32N 66°22' E 012°21'0 0.0
2015-Mar-31 08:32N 66°22' E 012°21'0 0.0
2015-Mar-31 07:33N 66°22' E 012°21'  
2015-Mar-27 17:29N 66°22' E 012°21'0 0.0
2015-Mar-27 16:29N 66°22' E 012°21'0 0.0
2015-Mar-27 15:29N 66°22' E 012°21'0 0.0
2015-Mar-27 14:29N 66°22' E 012°21'0 0.0
2015-Mar-27 13:33N 66°22' E 012°21'0 0.0
2015-Mar-27 12:31N 66°22' E 012°21'0 0.0
2015-Mar-27 11:31N 66°22' E 012°21'0 0.0
2015-Mar-27 10:25N 66°22' E 012°21'0 0.0
2015-Mar-25 14:29N 66°22' E 012°21'1 1.3
2015-Mar-25 13:33N 66°23' E 012°20'2 0.2
2015-Mar-25 05:33N 66°23' E 012°16'2 0.2
2015-Mar-24 15:29N 66°22' E 012°21'0 0.0
2015-Mar-24 14:29N 66°22' E 012°21'0 0.0
2015-Mar-23 12:29N 66°22' E 012°21'2 2.0
2015-Mar-23 11:33N 66°22' E 012°26'2 1.8
2015-Mar-23 10:31N 66°22' E 012°21'0 0.0
2015-Mar-23 09:31N 66°22' E 012°21'0 0.0
2015-Mar-23 08:31N 66°22' E 012°21'  
Track history (hours):
 
Tides and Currents Weather Stations Pressure Air Temp Water Temp Dewpoint Dewpoint Depression Visibility Wind Speed Wind Dir Waves Ship Positions

Kvitbjoern

Last reported at 2015-Mar-31 16:29 UTC. Time now 2015-Apr-01 03:07 UTC.
Position N 66°22' E 012°21'.

Length 10 m.

Type: Fishing. MMSI: 257454420.

Date/timePositionNaut miles runAvg speedWind from/ knotsBaromVisibWave heightAir tempDewpointWater temp
2015-Mar-31 16:29N 66°22' E 012°21'1 1.5
2015-Mar-31 15:33N 66°21' E 012°24'2 1.7
2015-Mar-31 14:25N 66°20' E 012°28'1 1.0
2015-Mar-31 13:31N 66°20' E 012°26'2 2.4
2015-Mar-31 12:33N 66°22' E 012°24'2 2.1
2015-Mar-31 11:33N 66°24' E 012°21'1 1.3
2015-Mar-31 10:32N 66°22' E 012°21'0 0.0
2015-Mar-31 09:32N 66°22' E 012°21'0 0.0
2015-Mar-31 08:32N 66°22' E 012°21'0 0.0
2015-Mar-31 07:33N 66°22' E 012°21'  
2015-Mar-27 17:29N 66°22' E 012°21'0 0.0
2015-Mar-27 16:29N 66°22' E 012°21'0 0.0
2015-Mar-27 15:29N 66°22' E 012°21'0 0.0
2015-Mar-27 14:29N 66°22' E 012°21'0 0.0
2015-Mar-27 13:33N 66°22' E 012°21'0 0.0
2015-Mar-27 12:31N 66°22' E 012°21'0 0.0
2015-Mar-27 11:31N 66°22' E 012°21'0 0.0
2015-Mar-27 10:25N 66°22' E 012°21'0 0.0
2015-Mar-25 14:29N 66°22' E 012°21'1 1.3
2015-Mar-25 13:33N 66°23' E 012°20'2 0.2
2015-Mar-25 05:33N 66°23' E 012°16'2 0.2
2015-Mar-24 15:29N 66°22' E 012°21'0 0.0
2015-Mar-24 14:29N 66°22' E 012°21'0 0.0
2015-Mar-23 12:29N 66°22' E 012°21'2 2.0
2015-Mar-23 11:33N 66°22' E 012°26'2 1.8
2015-Mar-23 10:31N 66°22' E 012°21'0 0.0
2015-Mar-23 09:31N 66°22' E 012°21'0 0.0
2015-Mar-23 08:31N 66°22' E 012°21'  

Dump ship's entire track history